createdAt,value
2019-03-06T00:01:24.847Z,11.64
2019-03-06T00:03:54.236Z,11.58
2019-03-06T00:06:23.988Z,11.49
2019-03-06T00:08:53.481Z,11.41
2019-03-06T00:11:22.980Z,11.36
2019-03-06T00:13:52.457Z,11.26
2019-03-06T00:16:21.890Z,11.16
2019-03-06T00:18:51.289Z,11.06
2019-03-06T00:21:20.774Z,10.93
2019-03-06T00:23:50.276Z,10.86
2019-03-06T00:26:19.710Z,10.80
2019-03-06T00:28:49.150Z,10.64
2019-03-06T00:31:18.609Z,10.56
2019-03-06T00:33:48.096Z,10.61
2019-03-06T00:36:25.221Z,10.59
2019-03-06T00:38:54.601Z,10.62
2019-03-06T00:41:31.558Z,10.63
2019-03-06T00:44:01.239Z,10.71
2019-03-06T00:46:30.696Z,10.66
2019-03-06T00:49:00.168Z,10.68
2019-03-06T00:51:29.630Z,10.68
2019-03-06T00:53:59.064Z,10.59
2019-03-06T00:56:28.963Z,10.51
2019-03-06T00:58:58.469Z,10.50
2019-03-06T01:01:27.902Z,10.52
2019-03-06T01:03:57.330Z,10.46
2019-03-06T01:06:28.205Z,10.41
2019-03-06T01:08:57.687Z,10.38
2019-03-06T01:11:27.268Z,10.36
2019-03-06T01:13:56.729Z,10.26
2019-03-06T01:16:26.195Z,10.24
2019-03-06T01:18:55.730Z,10.27
2019-03-06T01:21:25.273Z,10.24
2019-03-06T01:23:54.679Z,10.20
2019-03-06T01:26:24.183Z,10.18
2019-03-06T01:28:54.042Z,10.13
2019-03-06T01:31:23.586Z,10.09
2019-03-06T01:34:06.175Z,10.15
2019-03-06T01:36:45.916Z,10.13
2019-03-06T01:39:26.935Z,10.05
2019-03-06T01:42:04.903Z,9.88
2019-03-06T01:44:52.794Z,9.83
2019-03-06T01:47:22.337Z,9.96
2019-03-06T01:49:51.738Z,10.01
2019-03-06T01:52:21.247Z,10.06
2019-03-06T01:54:50.736Z,10.09
2019-03-06T01:57:20.174Z,10.15
2019-03-06T01:59:49.649Z,10.17
2019-03-06T02:02:19.559Z,10.14
2019-03-06T02:04:49.035Z,10.12
2019-03-06T02:07:18.824Z,10.09
2019-03-06T02:09:48.220Z,9.94
2019-03-06T02:12:17.846Z,9.93
2019-03-06T02:14:47.343Z,9.93
2019-03-06T02:17:16.749Z,9.91
2019-03-06T02:19:46.255Z,9.86
2019-03-06T02:22:15.961Z,9.85
2019-03-06T02:24:45.342Z,9.91
2019-03-06T02:27:14.902Z,10.00
2019-03-06T02:29:44.422Z,10.04
2019-03-06T02:32:14.128Z,10.11
2019-03-06T02:34:43.519Z,10.18
2019-03-06T02:37:13.010Z,10.28
2019-03-06T02:39:42.490Z,10.30
2019-03-06T02:42:11.959Z,10.29
2019-03-06T02:44:41.377Z,10.29
2019-03-06T02:47:10.821Z,10.23
2019-03-06T02:49:40.317Z,10.13
2019-03-06T02:52:09.783Z,10.03
2019-03-06T02:54:39.214Z,9.92
2019-03-06T02:57:08.689Z,10.02
2019-03-06T02:59:43.857Z,10.14
2019-03-06T03:02:26.631Z,10.25
2019-03-06T03:05:01.459Z,10.30
2019-03-06T03:07:30.869Z,10.29
2019-03-06T03:10:00.507Z,10.37
2019-03-06T03:12:30.027Z,10.40
2019-03-06T03:14:59.511Z,10.37
2019-03-06T03:17:28.958Z,10.34
2019-03-06T03:19:58.388Z,10.33
2019-03-06T03:22:27.851Z,10.39
2019-03-06T03:24:57.426Z,10.39
2019-03-06T03:27:26.892Z,10.19
2019-03-06T03:29:56.290Z,10.07
2019-03-06T03:32:25.744Z,9.93
2019-03-06T03:34:55.349Z,9.93
2019-03-06T03:37:24.848Z,9.91
2019-03-06T03:39:54.339Z,9.93
2019-03-06T03:42:23.845Z,9.81
2019-03-06T03:44:53.247Z,9.83
2019-03-06T03:47:22.682Z,9.84
2019-03-06T03:49:52.228Z,10.01
2019-03-06T03:52:21.718Z,10.01
2019-03-06T03:54:51.116Z,10.12
2019-03-06T03:57:20.810Z,10.03
2019-03-06T03:59:50.281Z,9.89
2019-03-06T04:02:19.717Z,9.84
2019-03-06T04:04:49.170Z,9.70
2019-03-06T04:07:18.657Z,9.68
2019-03-06T04:09:48.154Z,9.65
2019-03-06T04:12:17.628Z,9.63
2019-03-06T04:14:47.092Z,9.62
2019-03-06T04:17:16.519Z,9.56
2019-03-06T04:19:45.963Z,9.49
2019-03-06T04:22:15.407Z,9.42
2019-03-06T04:24:44.900Z,9.32
2019-03-06T04:27:14.379Z,9.24
2019-03-06T04:29:43.807Z,9.25
2019-03-06T04:32:13.348Z,9.26
2019-03-06T04:34:42.893Z,9.24
2019-03-06T04:37:12.402Z,9.15
2019-03-06T04:39:41.808Z,9.10
2019-03-06T04:42:11.333Z,9.03
2019-03-06T04:44:40.835Z,8.96
2019-03-06T04:47:10.259Z,9.07
2019-03-06T04:49:39.687Z,9.09
2019-03-06T04:52:09.434Z,8.98
2019-03-06T04:54:38.906Z,8.85
2019-03-06T04:57:09.412Z,8.70
2019-03-06T04:59:39.665Z,8.63
2019-03-06T05:02:09.153Z,8.60
2019-03-06T05:04:40.410Z,8.60
2019-03-06T05:07:09.860Z,8.66
2019-03-06T05:09:39.551Z,8.67
2019-03-06T05:12:09.062Z,8.79
2019-03-06T05:14:38.669Z,8.93
2019-03-06T05:17:30.426Z,8.92
2019-03-06T05:19:59.816Z,8.89
2019-03-06T05:22:29.252Z,8.85
2019-03-06T05:24:58.787Z,8.82
2019-03-06T05:27:28.228Z,8.94
2019-03-06T05:29:57.648Z,8.95
2019-03-06T05:32:34.619Z,9.04
2019-03-06T05:35:10.588Z,9.26
2019-03-06T05:38:09.991Z,9.37
2019-03-06T05:40:39.901Z,9.54
2019-03-06T05:43:09.785Z,9.65
2019-03-06T05:45:39.241Z,9.76
2019-03-06T05:48:08.723Z,9.82
2019-03-06T05:50:39.112Z,9.88
2019-03-06T05:53:08.610Z,9.94
2019-03-06T05:55:38.052Z,10.01
2019-03-06T05:58:07.601Z,10.09
2019-03-06T06:00:37.159Z,10.08
2019-03-06T06:03:06.599Z,10.22
2019-03-06T06:05:35.987Z,10.25
2019-03-06T06:08:05.619Z,10.36
2019-03-06T06:10:35.286Z,10.41
2019-03-06T06:13:04.754Z,10.49
2019-03-06T06:15:34.279Z,10.61
2019-03-06T06:18:03.769Z,10.66
2019-03-06T06:20:33.200Z,10.70
2019-03-06T06:23:12.215Z,10.73
2019-03-06T06:25:41.720Z,10.68
2019-03-06T06:28:11.343Z,10.81
2019-03-06T06:30:40.789Z,10.86
2019-03-06T06:33:10.518Z,10.88
2019-03-06T06:35:40.014Z,10.95
2019-03-06T06:38:09.871Z,10.91
2019-03-06T06:40:39.322Z,10.92
2019-03-06T06:43:08.802Z,10.92
2019-03-06T06:45:39.319Z,11.03
2019-03-06T06:48:13.437Z,11.12
2019-03-06T06:50:46.532Z,11.27
2019-03-06T06:53:45.340Z,11.37
2019-03-06T06:56:58.750Z,11.49
2019-03-06T06:59:37.973Z,11.56
2019-03-06T07:03:14.012Z,11.77
2019-03-06T07:05:54.365Z,12.03
2019-03-06T07:08:51.622Z,12.31
2019-03-06T07:11:39.986Z,12.53
2019-03-06T07:14:32.131Z,12.83
2019-03-06T07:17:26.919Z,13.10
2019-03-06T07:20:24.092Z,13.27
2019-03-06T07:23:10.247Z,13.41
2019-03-06T07:25:48.338Z,13.66
2019-03-06T07:28:27.869Z,13.71
2019-03-06T07:31:19.107Z,13.69
2019-03-06T07:34:10.037Z,13.58
2019-03-06T07:36:51.868Z,13.51
2019-03-06T07:39:44.177Z,13.47
2019-03-06T07:42:47.977Z,13.43
2019-03-06T07:46:12.087Z,13.53
2019-03-06T07:49:02.044Z,13.53
2019-03-06T07:52:05.465Z,13.76
2019-03-06T07:54:49.873Z,14.01
2019-03-06T07:57:27.546Z,14.18
2019-03-06T07:59:57.285Z,14.31
2019-03-06T08:02:50.446Z,14.32
2019-03-06T08:05:20.330Z,14.43
2019-03-06T08:07:49.855Z,14.48
2019-03-06T08:10:23.333Z,14.49
2019-03-06T08:13:01.422Z,14.60
2019-03-06T08:15:52.520Z,14.57
2019-03-06T08:18:39.274Z,14.66
2019-03-06T08:21:24.337Z,14.53
2019-03-06T08:24:19.038Z,14.57
2019-03-06T08:26:48.511Z,14.73
2019-03-06T08:29:32.393Z,14.96
2019-03-06T08:32:09.774Z,15.02
2019-03-06T08:34:39.261Z,15.26
2019-03-06T08:37:08.676Z,15.28
2019-03-06T08:39:38.409Z,15.53
2019-03-06T08:42:09.262Z,15.62
2019-03-06T08:44:38.740Z,15.65
2019-03-06T08:47:22.952Z,15.55
2019-03-06T08:50:08.444Z,15.66
2019-03-06T08:52:49.169Z,15.67
2019-03-06T08:55:40.595Z,15.13
2019-03-06T08:58:47.275Z,15.26
2019-03-06T09:01:43.808Z,15.31
2019-03-06T09:04:24.000Z,15.42
2019-03-06T09:07:02.934Z,15.65
2019-03-06T09:09:51.377Z,15.75
2019-03-06T09:12:45.360Z,15.88
2019-03-06T09:15:51.994Z,16.06
2019-03-06T09:18:55.288Z,16.20
2019-03-06T09:21:30.181Z,16.31
2019-03-06T09:24:16.836Z,16.36
2019-03-06T09:27:05.211Z,16.41
2019-03-06T09:29:53.682Z,16.50
2019-03-06T09:32:43.779Z,16.65
2019-03-06T09:35:36.661Z,16.80
2019-03-06T09:38:20.476Z,16.94
2019-03-06T09:41:00.885Z,17.05
2019-03-06T09:43:52.260Z,17.14
2019-03-06T09:46:36.817Z,17.45
2019-03-06T09:49:24.002Z,17.72
2019-03-06T09:52:04.053Z,17.68
2019-03-06T09:54:55.039Z,17.34
2019-03-06T09:57:37.676Z,17.08
2019-03-06T10:00:32.873Z,17.32
2019-03-06T10:03:21.450Z,17.48
2019-03-06T10:05:59.298Z,17.56
2019-03-06T10:08:53.111Z,17.42
2019-03-06T10:11:36.493Z,17.43
2019-03-06T10:14:13.205Z,17.57
2019-03-06T10:17:07.682Z,17.60
2019-03-06T10:19:45.636Z,17.78
2019-03-06T10:22:15.169Z,17.65
2019-03-06T10:24:45.504Z,17.87
2019-03-06T10:27:15.540Z,17.40
2019-03-06T10:29:45.052Z,17.71
2019-03-06T10:32:14.545Z,17.93
2019-03-06T10:34:44.025Z,17.97
2019-03-06T10:37:13.627Z,18.03
2019-03-06T10:39:43.434Z,18.01
2019-03-06T10:42:12.900Z,17.95
2019-03-06T10:44:42.590Z,18.07
2019-03-06T10:47:11.958Z,17.94
2019-03-06T10:49:41.399Z,17.95
2019-03-06T10:52:10.926Z,17.90
2019-03-06T10:54:44.720Z,17.84
2019-03-06T10:57:12.062Z,17.77
2019-03-06T10:59:41.932Z,18.12
2019-03-06T11:02:11.607Z,18.43
2019-03-06T11:04:54.729Z,18.37
2019-03-06T11:07:24.302Z,18.27
2019-03-06T11:09:53.858Z,18.11
2019-03-06T11:12:23.465Z,17.79
2019-03-06T11:14:52.976Z,17.84
2019-03-06T11:17:22.588Z,17.65
2019-03-06T11:19:52.429Z,17.90
2019-03-06T11:22:21.895Z,17.74
2019-03-06T11:24:51.331Z,17.70
2019-03-06T11:27:20.860Z,17.69
2019-03-06T11:29:50.379Z,17.61
2019-03-06T11:32:19.860Z,17.61
2019-03-06T11:34:49.756Z,17.61
2019-03-06T11:37:19.434Z,17.61
2019-03-06T11:39:48.858Z,17.74
2019-03-06T11:42:18.292Z,17.79
2019-03-06T11:44:47.715Z,17.75
2019-03-06T11:47:17.193Z,17.74
2019-03-06T11:49:46.627Z,17.75
2019-03-06T11:52:16.109Z,17.80
2019-03-06T11:54:45.525Z,17.82
2019-03-06T11:57:14.995Z,17.85
2019-03-06T11:59:46.832Z,17.85
2019-03-06T12:02:17.284Z,17.83
2019-03-06T12:04:46.767Z,17.83
2019-03-06T12:07:16.169Z,17.70
2019-03-06T12:09:45.602Z,17.83
2019-03-06T12:12:15.122Z,17.94
2019-03-06T12:14:44.656Z,18.07
2019-03-06T12:17:14.323Z,18.15
2019-03-06T12:19:43.849Z,18.27
2019-03-06T12:22:13.435Z,18.27
2019-03-06T12:24:42.898Z,18.39
2019-03-06T12:27:12.450Z,18.38
2019-03-06T12:29:41.889Z,18.35
2019-03-06T12:32:11.680Z,18.35
2019-03-06T12:34:41.147Z,18.43
2019-03-06T12:37:10.566Z,18.50
2019-03-06T12:39:39.973Z,18.47
2019-03-06T12:42:14.285Z,18.51
2019-03-06T12:44:40.681Z,18.60
2019-03-06T12:47:11.013Z,18.56
2019-03-06T12:49:40.605Z,18.68
2019-03-06T12:52:09.993Z,18.76
2019-03-06T12:54:39.455Z,18.90
2019-03-06T12:57:08.967Z,18.95
2019-03-06T12:59:38.442Z,19.01
2019-03-06T13:02:07.831Z,19.10
2019-03-06T13:04:37.318Z,19.15
2019-03-06T13:07:06.800Z,19.26
2019-03-06T13:09:37.650Z,19.19
2019-03-06T13:12:07.455Z,19.23
2019-03-06T13:14:36.918Z,19.32
2019-03-06T13:17:06.585Z,19.36
2019-03-06T13:19:37.158Z,19.47
2019-03-06T13:22:11.351Z,19.46
2019-03-06T13:24:37.805Z,19.42
2019-03-06T13:27:07.314Z,19.45
2019-03-06T13:29:36.789Z,19.50
2019-03-06T13:32:11.643Z,19.42
2019-03-06T13:34:59.953Z,19.44
2019-03-06T13:37:29.427Z,19.47
2019-03-06T13:39:58.870Z,19.53
2019-03-06T13:42:28.304Z,19.61
2019-03-06T13:44:57.740Z,19.69
2019-03-06T13:47:27.255Z,19.82
2019-03-06T13:49:56.952Z,19.93
2019-03-06T13:52:26.338Z,19.94
2019-03-06T13:54:55.813Z,20.08
2019-03-06T13:57:25.267Z,20.23
2019-03-06T13:59:54.691Z,20.18
2019-03-06T14:02:24.244Z,20.17
2019-03-06T14:04:53.935Z,20.14
2019-03-06T14:07:23.305Z,20.12
2019-03-06T14:09:52.729Z,20.04
2019-03-06T14:12:22.240Z,20.05
2019-03-06T14:14:51.657Z,20.04
2019-03-06T14:17:21.045Z,20.12
2019-03-06T14:19:50.559Z,20.14
2019-03-06T14:22:20.148Z,20.03
2019-03-06T14:24:49.574Z,19.97
2019-03-06T14:27:18.983Z,19.88
2019-03-06T14:29:48.410Z,19.89
2019-03-06T14:32:17.990Z,19.90
2019-03-06T14:34:47.729Z,19.94
2019-03-06T14:37:17.263Z,19.88
2019-03-06T14:39:46.668Z,19.78
2019-03-06T14:42:16.253Z,19.74
2019-03-06T14:44:46.745Z,19.79
2019-03-06T14:47:17.613Z,19.80
2019-03-06T14:49:46.984Z,19.85
2019-03-06T14:52:16.474Z,19.82
2019-03-06T14:54:46.090Z,19.74
2019-03-06T14:57:15.561Z,19.63
2019-03-06T14:59:44.930Z,19.60
2019-03-06T15:02:14.476Z,19.65
2019-03-06T15:04:43.946Z,19.61
2019-03-06T15:07:13.437Z,19.57
2019-03-06T15:09:42.983Z,19.53
2019-03-06T15:12:12.396Z,19.53
2019-03-06T15:14:41.926Z,19.51
2019-03-06T15:17:11.411Z,19.48
2019-03-06T15:19:40.967Z,19.41
2019-03-06T15:22:10.485Z,19.34
2019-03-06T15:24:41.626Z,19.26
2019-03-06T15:27:11.249Z,19.21
2019-03-06T15:29:40.929Z,19.20
2019-03-06T15:32:10.515Z,19.17
2019-03-06T15:34:39.918Z,19.15
2019-03-06T15:37:09.323Z,19.07
2019-03-06T15:39:46.705Z,19.02
2019-03-06T15:42:12.431Z,18.95
2019-03-06T15:44:41.872Z,18.92
2019-03-06T15:47:11.507Z,18.87
2019-03-06T15:49:41.165Z,18.79
2019-03-06T15:52:11.577Z,18.75
2019-03-06T15:54:41.088Z,18.70
2019-03-06T15:57:10.498Z,18.61
2019-03-06T15:59:40.229Z,18.62
2019-03-06T16:02:12.403Z,18.56
2019-03-06T16:04:41.843Z,18.50
2019-03-06T16:07:11.280Z,18.45
2019-03-06T16:09:40.960Z,18.35
2019-03-06T16:12:12.218Z,18.23
2019-03-06T16:14:41.579Z,18.09
2019-03-06T16:17:11.055Z,17.99
2019-03-06T16:19:40.756Z,17.83
2019-03-06T16:22:10.628Z,17.73
2019-03-06T16:24:40.020Z,17.63
2019-03-06T16:27:09.404Z,17.57
2019-03-06T16:29:38.981Z,17.41
2019-03-06T16:32:08.915Z,17.27
2019-03-06T16:34:38.518Z,17.16
2019-03-06T16:37:08.435Z,16.96
2019-03-06T16:39:37.793Z,16.85
2019-03-06T16:42:07.303Z,16.82
2019-03-06T16:44:36.827Z,16.59
2019-03-06T16:47:07.090Z,16.42
2019-03-06T16:49:36.722Z,16.25
2019-03-06T16:52:06.318Z,16.27
2019-03-06T16:54:35.849Z,16.17
2019-03-06T16:57:05.359Z,16.10
2019-03-06T16:59:34.807Z,16.05
2019-03-06T17:02:04.234Z,16.01
2019-03-06T17:04:33.923Z,15.88
2019-03-06T17:07:03.774Z,15.84
2019-03-06T17:09:33.256Z,15.91
2019-03-06T17:12:02.632Z,15.91
2019-03-06T17:14:32.189Z,16.00
2019-03-06T17:17:01.583Z,15.93
2019-03-06T17:19:31.069Z,15.95
2019-03-06T17:22:00.720Z,15.90
2019-03-06T17:24:30.122Z,15.94
2019-03-06T17:26:59.508Z,15.93
2019-03-06T17:29:29.074Z,16.01
2019-03-06T17:31:58.940Z,16.07
2019-03-06T17:34:28.483Z,15.84
2019-03-06T17:36:58.024Z,15.66
2019-03-06T17:39:27.608Z,15.43
2019-03-06T17:41:57.118Z,15.26
2019-03-06T17:44:26.582Z,15.24
2019-03-06T17:46:56.109Z,15.04
2019-03-06T17:49:25.723Z,14.78
2019-03-06T17:51:55.296Z,14.57
2019-03-06T17:54:24.688Z,14.40
2019-03-06T17:56:54.216Z,14.27
2019-03-06T17:59:24.051Z,14.16
2019-03-06T18:01:53.549Z,14.19
2019-03-06T18:04:24.537Z,14.13
2019-03-06T18:06:54.222Z,14.14
2019-03-06T18:09:23.650Z,14.15
2019-03-06T18:11:53.105Z,14.05
2019-03-06T18:14:22.841Z,13.94
2019-03-06T18:16:52.911Z,13.98
2019-03-06T18:19:22.420Z,14.02
2019-03-06T18:21:51.886Z,13.92
2019-03-06T18:24:21.714Z,13.92
2019-03-06T18:26:51.275Z,13.74
2019-03-06T18:29:20.719Z,13.64
2019-03-06T18:31:50.206Z,13.69
2019-03-06T18:34:19.808Z,13.52
2019-03-06T18:36:49.402Z,13.41
2019-03-06T18:39:19.773Z,13.27
2019-03-06T18:41:49.667Z,13.42
2019-03-06T18:44:19.100Z,13.40
2019-03-06T18:46:48.518Z,13.50
2019-03-06T18:49:18.057Z,13.24
2019-03-06T18:51:47.621Z,12.99
2019-03-06T18:54:17.025Z,12.94
2019-03-06T18:56:46.427Z,12.98
2019-03-06T18:59:15.975Z,12.96
2019-03-06T19:01:45.464Z,12.74
2019-03-06T19:04:14.867Z,12.78
2019-03-06T19:06:44.373Z,12.80
2019-03-06T19:09:13.874Z,12.71
2019-03-06T19:11:43.870Z,12.57
2019-03-06T19:14:13.318Z,12.42
2019-03-06T19:16:42.930Z,12.53
2019-03-06T19:19:12.399Z,12.52
2019-03-06T19:21:41.854Z,12.40
2019-03-06T19:24:11.359Z,12.23
2019-03-06T19:26:41.323Z,12.19
2019-03-06T19:29:10.852Z,12.22
2019-03-06T19:31:40.267Z,12.36
2019-03-06T19:34:09.788Z,12.39
2019-03-06T19:36:39.339Z,12.28
2019-03-06T19:39:09.148Z,12.43
2019-03-06T19:41:38.712Z,12.32
2019-03-06T19:44:08.466Z,12.23
2019-03-06T19:46:38.019Z,12.04
2019-03-06T19:49:07.596Z,11.99
2019-03-06T19:51:37.085Z,11.90
2019-03-06T19:54:06.707Z,11.87
2019-03-06T19:56:36.225Z,11.80
2019-03-06T19:59:05.937Z,11.73
2019-03-06T20:01:35.586Z,11.86
2019-03-06T20:04:05.213Z,11.83
2019-03-06T20:06:34.656Z,11.85
2019-03-06T20:09:05.690Z,11.83
2019-03-06T20:11:35.763Z,12.05
2019-03-06T20:14:05.360Z,12.06
2019-03-06T20:16:34.846Z,12.02
2019-03-06T20:19:04.542Z,11.81
2019-03-06T20:21:34.095Z,11.61
2019-03-06T20:24:03.492Z,11.44
2019-03-06T20:26:33.014Z,11.33
2019-03-06T20:29:02.626Z,11.22
2019-03-06T20:31:32.260Z,11.14
2019-03-06T20:34:01.673Z,11.03
2019-03-06T20:36:32.110Z,10.93
2019-03-06T20:39:01.522Z,10.87
2019-03-06T20:41:30.932Z,10.83
2019-03-06T20:44:00.509Z,10.79
2019-03-06T20:46:30.130Z,10.74
2019-03-06T20:48:59.532Z,10.71
2019-03-06T20:51:30.281Z,10.71
2019-03-06T20:53:59.888Z,10.70
2019-03-06T20:56:29.424Z,10.72
2019-03-06T20:58:59.275Z,10.69
2019-03-06T21:01:29.065Z,10.71
2019-03-06T21:03:58.617Z,10.71
2019-03-06T21:06:33.614Z,10.64
2019-03-06T21:08:59.337Z,10.55
2019-03-06T21:11:28.896Z,10.50
2019-03-06T21:13:58.462Z,10.50
2019-03-06T21:16:27.974Z,10.45
2019-03-06T21:18:57.387Z,10.39
2019-03-06T21:21:26.846Z,10.35
2019-03-06T21:23:56.360Z,10.34
2019-03-06T21:26:25.855Z,10.42
2019-03-06T21:28:55.364Z,10.46
2019-03-06T21:31:24.765Z,10.49
2019-03-06T21:33:54.269Z,10.39
2019-03-06T21:36:23.816Z,10.27
2019-03-06T21:38:53.238Z,10.20
2019-03-06T21:41:22.716Z,10.10
2019-03-06T21:43:52.267Z,9.99
2019-03-06T21:46:21.865Z,9.90
2019-03-06T21:48:51.626Z,10.11
2019-03-06T21:51:21.074Z,10.18
2019-03-06T21:53:50.991Z,10.03
2019-03-06T21:56:20.426Z,9.90
2019-03-06T21:58:50.056Z,9.83
2019-03-06T22:01:19.584Z,9.84
2019-03-06T22:03:49.126Z,9.84
2019-03-06T22:06:18.591Z,9.95
2019-03-06T22:08:48.153Z,9.99
2019-03-06T22:11:17.672Z,9.98
2019-03-06T22:13:47.140Z,9.94
2019-03-06T22:16:16.547Z,9.85
2019-03-06T22:18:46.070Z,9.82
2019-03-06T22:21:15.628Z,9.83
2019-03-06T22:23:45.033Z,9.77
2019-03-06T22:26:14.449Z,9.96
2019-03-06T22:28:44.332Z,10.14
2019-03-06T22:31:13.882Z,10.28
2019-03-06T22:33:43.488Z,10.30
2019-03-06T22:36:13.035Z,10.26
2019-03-06T22:38:42.449Z,10.15
2019-03-06T22:41:11.883Z,10.01
2019-03-06T22:43:41.595Z,9.93
2019-03-06T22:46:11.111Z,9.95
2019-03-06T22:48:40.533Z,10.00
2019-03-06T22:51:10.049Z,10.20
2019-03-06T22:53:39.589Z,10.22
2019-03-06T22:56:09.475Z,10.20
2019-03-06T22:58:38.899Z,10.03
2019-03-06T23:01:40.273Z,9.94
2019-03-06T23:04:09.847Z,9.63
2019-03-06T23:06:39.541Z,9.52
2019-03-06T23:09:12.307Z,9.42
2019-03-06T23:11:41.843Z,9.30
2019-03-06T23:14:11.352Z,9.15
2019-03-06T23:16:40.750Z,8.94
2019-03-06T23:19:10.339Z,8.79
2019-03-06T23:21:39.826Z,8.78
2019-03-06T23:24:09.226Z,8.76
2019-03-06T23:26:42.851Z,8.70
2019-03-06T23:29:09.897Z,8.66
2019-03-06T23:31:39.672Z,8.70
2019-03-06T23:34:09.723Z,8.66
2019-03-06T23:36:39.225Z,8.66
2019-03-06T23:39:14.017Z,8.62
2019-03-06T23:41:43.594Z,8.51
2019-03-06T23:44:14.724Z,8.64
2019-03-06T23:46:44.125Z,8.58
2019-03-06T23:49:13.686Z,8.45
2019-03-06T23:52:02.097Z,8.40
2019-03-06T23:54:31.829Z,8.31
2019-03-06T23:57:02.190Z,8.17
2019-03-06T23:59:31.592Z,8.11
